Time;durP1;ratioP1;P1;durP2;ratioP2;P2;SDS_P1;SDS_P2;PMS_P1;PMS_P2;Temp;Humidity;BMP_temperature;BMP_pressure;BME280_temperature;BME280_humidity;BME280_pressure;Samples;Min_cycle;Max_cycle;Signal;HPM_P1;HPM_P2
2023/06/08 00:02:03;;;;;;;;;;;;;;;-144.99;96.13;52280.97;5010954;28;19929;-69
2023/06/08 00:04:33;;;;;;;;;;;;;;;-144.99;96.70;52256.50;5008205;28;20040;-69
2023/06/08 00:06:59;;;;;;;;;;;;;;;-144.99;97.27;52276.88;5008858;28;19926;-68
2023/06/08 00:09:26;;;;;;;;;;;;;;;-144.99;97.50;52248.34;5006864;28;19925;-69
2023/06/08 00:11:55;;;;;;;;;;;;;;;-144.99;97.65;52211.66;5008801;28;19929;-69
2023/06/08 00:14:21;;;;;;;;;;;;;;;-144.99;97.90;52262.63;5007601;28;20033;-74
2023/06/08 00:16:49;;;;;;;;;;;;;;;-144.99;97.43;52232.03;5007987;28;19949;-70
2023/06/08 00:19:16;;;;;;;;;;;;;;;-144.99;97.53;52203.50;5006889;28;19929;-71
2023/06/08 00:21:43;;;;;;;;;;;;;;;-144.99;97.64;52211.66;5007250;28;19936;-70
2023/06/08 00:24:09;;;;;;;;;;;;;;;-144.99;97.89;52272.81;5007277;28;20387;-74
2023/06/08 00:26:36;;;;;;;;;;;;;;;-144.99;98.25;52223.88;5007123;28;19936;-71
2023/06/08 00:29:04;;;;;;;;;;;;;;;-144.99;98.69;52223.88;5005500;28;20359;-70
2023/06/08 00:31:31;;;;;;;;;;;;;;;-144.99;98.42;52264.66;5007886;28;19933;-70
2023/06/08 00:33:57;;;;;;;;;;;;;;;-144.99;98.63;52248.34;5007673;28;20477;-71
2023/06/08 00:36:24;;;;;;;;;;;;;;;-144.99;98.89;52240.19;5007315;28;19925;-72
2023/06/08 00:38:51;;;;;;;;;;;;;;;-144.99;98.83;52230.00;5005787;28;19929;-71
2023/06/08 00:41:18;;;;;;;;;;;;;;;-144.99;98.88;52276.88;5010035;28;19936;-69
2023/06/08 00:43:45;;;;;;;;;;;;;;;-144.99;98.17;52240.19;5009581;28;20517;-70
2023/06/08 00:46:13;;;;;;;;;;;;;;;-144.99;98.79;52264.66;5011837;28;19967;-68
2023/06/08 00:48:40;;;;;;;;;;;;;;;-144.99;98.96;52244.28;5012206;28;20288;-68
2023/06/08 00:51:08;;;;;;;;;;;;;;;-144.99;98.80;52248.34;5013148;28;19952;-68
2023/06/08 00:53:36;;;;;;;;;;;;;;;-144.99;98.92;52268.72;5003786;28;19926;-68
2023/06/08 00:56:03;;;;;;;;;;;;;;;-144.99;98.01;52240.19;5009071;28;19933;-67
2023/06/08 00:58:30;;;;;;;;;;;;;;;-144.99;97.78;52207.59;5006687;28;19936;-69
2023/06/08 01:01:01;;;;;;;;;;;;;;;-144.99;97.65;52264.66;5012748;28;19934;-68
2023/06/08 01:03:35;;;;;;;;;;;;;;;-144.99;97.81;52203.50;5008738;28;20032;-68
2023/06/08 01:06:02;;;;;;;;;;;;;;;-144.99;97.98;52236.13;5008586;28;19988;-68
2023/06/08 01:08:35;;;;;;;;;;;;;;;-144.99;98.01;52240.19;5007538;28;19929;-68
2023/06/08 01:11:05;;;;;;;;;;;;;;;-144.99;97.92;52248.34;5008933;28;20120;-68
2023/06/08 01:13:38;;;;;;;;;;;;;;;-144.99;97.77;52262.63;5009581;28;20100;-70
2023/06/08 01:16:04;;;;;;;;;;;;;;;-144.99;98.08;52256.50;5008673;28;20362;-70
2023/06/08 01:18:38;;;;;;;;;;;;;;;-144.99;98.47;52227.97;5008006;28;20361;-70
2023/06/08 01:21:10;;;;;;;;;;;;;;;-144.99;98.04;52240.19;5008643;28;19925;-68
2023/06/08 01:23:44;;;;;;;;;;;;;;;-144.99;97.96;52223.88;5003462;28;19937;-68
2023/06/08 01:26:15;;;;;;;;;;;;;;;-144.99;98.43;52223.88;5008443;28;19930;-69
2023/06/08 01:28:42;;;;;;;;;;;;;;;-144.99;98.28;52191.28;5005039;28;19972;-69
2023/06/08 01:31:09;;;;;;;;;;;;;;;-144.99;98.40;52223.88;5008810;28;19960;-69
2023/06/08 01:33:36;;;;;;;;;;;;;;;-144.99;98.46;52236.13;5008278;28;20300;-70
2023/06/08 01:36:06;;;;;;;;;;;;;;;-144.99;99.01;52256.50;5007810;28;19981;-70
2023/06/08 01:38:38;;;;;;;;;;;;;;;-144.99;99.41;52250.38;5006837;28;19984;-70
2023/06/08 01:41:07;;;;;;;;;;;;;;;-144.99;99.60;52238.16;5007971;28;20271;-69
2023/06/08 01:43:37;;;;;;;;;;;;;;;-144.99;99.80;52225.94;5006125;28;19929;-68
2023/06/08 01:46:07;;;;;;;;;;;;;;;-144.99;99.76;52230.00;5008139;28;19929;-69
2023/06/08 01:48:34;;;;;;;;;;;;;;;-144.99;99.53;52203.50;5007424;28;19930;-65
2023/06/08 01:51:01;;;;;;;;;;;;;;;-144.99;100.00;52268.72;5007039;28;19932;-65
2023/06/08 01:53:28;;;;;;;;;;;;;;;-144.99;99.73;52234.09;5007528;28;20371;-63
2023/06/08 01:55:55;;;;;;;;;;;;;;;-144.99;99.77;52270.78;5007840;28;19925;-63
2023/06/08 01:58:22;;;;;;;;;;;;;;;-144.99;99.81;52240.19;5006344;28;20276;-63
2023/06/08 02:00:50;;;;;;;;;;;;;;;-144.99;100.00;52211.66;5007908;28;19934;-63
2023/06/08 02:03:16;;;;;;;;;;;;;;;-144.99;100.00;52276.88;5007556;28;20050;-64
2023/06/08 02:05:43;;;;;;;;;;;;;;;-144.99;99.82;52236.13;5007314;28;20496;-64
2023/06/08 02:08:09;;;;;;;;;;;;;;;-144.99;100.00;52260.56;5006781;28;19925;-63
2023/06/08 02:10:36;;;;;;;;;;;;;;;-144.99;100.00;52232.03;5007554;28;20401;-63
2023/06/08 02:13:03;;;;;;;;;;;;;;;-144.99;100.00;52232.03;5007063;28;20390;-63
2023/06/08 02:15:29;;;;;;;;;;;;;;;-144.99;100.00;52211.66;5008313;28;20399;-64
2023/06/08 02:17:59;;;;;;;;;;;;;;;-144.99;99.95;52256.50;5007583;28;19925;-62
2023/06/08 02:20:25;;;;;;;;;;;;;;;-144.99;100.00;52234.09;5007274;28;20400;-62
2023/06/08 02:22:52;;;;;;;;;;;;;;;-144.99;100.00;52260.56;5008003;28;19929;-63
2023/06/08 02:25:19;;;;;;;;;;;;;;;-144.99;100.00;52240.19;5006268;28;19929;-62
2023/06/08 02:27:46;;;;;;;;;;;;;;;-144.99;100.00;52256.50;5007255;28;19929;-62
2023/06/08 02:30:13;;;;;;;;;;;;;;;-144.99;100.00;52211.66;5005116;28;20019;-62
2023/06/08 02:32:41;;;;;;;;;;;;;;;-144.99;100.00;52252.44;5009343;28;19926;-71
2023/06/08 02:35:10;;;;;;;;;;;;;;;-144.99;100.00;52236.13;5009088;28;20083;-70
2023/06/08 02:37:36;;;;;;;;;;;;;;;-144.99;100.00;52252.44;4994408;28;20283;-69
2023/06/08 02:40:04;;;;;;;;;;;;;;;-144.99;100.00;52223.88;5006560;28;20464;-65
2023/06/08 02:42:30;;;;;;;;;;;;;;;-144.99;100.00;52252.44;5007036;28;19925;-69
2023/06/08 02:44:57;;;;;;;;;;;;;;;-144.99;100.00;52248.34;5005593;28;20188;-68
2023/06/08 02:47:24;;;;;;;;;;;;;;;-144.99;100.00;52242.22;5008133;28;19929;-71
2023/06/08 02:49:50;;;;;;;;;;;;;;;-144.99;100.00;52293.19;5007080;28;19933;-71
2023/06/08 02:52:18;;;;;;;;;;;;;;;-144.99;100.00;52268.72;5007629;28;19937;-70
2023/06/08 02:54:45;;;;;;;;;;;;;;;-144.99;100.00;52276.88;5006297;28;19933;-68
2023/06/08 02:57:12;;;;;;;;;;;;;;;-144.99;100.00;52252.44;5006790;28;19925;-68
2023/06/08 02:59:38;;;;;;;;;;;;;;;-144.99;100.00;52207.59;5004888;28;20146;-69
2023/06/08 03:02:05;;;;;;;;;;;;;;;-144.99;100.00;52264.66;5010250;28;19949;-70
2023/06/08 03:04:32;;;;;;;;;;;;;;;-144.99;100.00;52264.66;5005427;28;20382;-72
2023/06/08 03:06:58;;;;;;;;;;;;;;;-144.99;100.00;52250.38;5006730;28;19982;-71
2023/06/08 03:09:28;;;;;;;;;;;;;;;-144.99;100.00;52252.44;5005849;28;19955;-73
2023/06/08 03:11:55;;;;;;;;;;;;;;;-144.99;100.00;52183.13;5006797;28;19926;-68
2023/06/08 03:14:28;;;;;;;;;;;;;;;-144.99;100.00;52260.56;5008156;28;20481;-77
2023/06/08 03:16:56;;;;;;;;;;;;;;;-144.99;100.00;52262.63;5008164;28;20236;-67
2023/06/08 03:19:22;;;;;;;;;;;;;;;-144.99;100.00;52227.97;5005339;28;20465;-66
2023/06/08 03:21:49;;;;;;;;;;;;;;;-144.99;100.00;52264.66;5006250;28;19925;-66
2023/06/08 03:24:16;;;;;;;;;;;;;;;-144.99;100.00;52256.50;5005226;28;20262;-66
2023/06/08 03:26:44;;;;;;;;;;;;;;;-144.99;100.00;52223.88;5007159;28;20401;-67
2023/06/08 03:29:10;;;;;;;;;;;;;;;-144.99;100.00;52248.34;5005195;28;20019;-67
2023/06/08 03:31:37;;;;;;;;;;;;;;;-144.99;100.00;52266.69;5007004;28;19926;-66
2023/06/08 03:34:05;;;;;;;;;;;;;;;-144.99;100.00;52266.69;5007155;28;20033;-67
2023/06/08 03:36:35;;;;;;;;;;;;;;;-144.99;100.00;52232.03;5007372;28;20398;-67
2023/06/08 03:39:02;;;;;;;;;;;;;;;-144.99;100.00;52268.72;5007051;28;20021;-68
2023/06/08 03:41:29;;;;;;;;;;;;;;;-144.99;100.00;52280.97;5007124;28;20430;-69
2023/06/08 03:43:58;;;;;;;;;;;;;;;-144.99;100.00;52252.44;5006405;28;19929;-74
2023/06/08 03:46:25;;;;;;;;;;;;;;;-144.99;100.00;52256.50;5007292;28;19930;-69
2023/06/08 03:48:52;;;;;;;;;;;;;;;-144.99;100.00;52236.13;5007311;28;19926;-69
2023/06/08 03:51:19;;;;;;;;;;;;;;;-144.99;100.00;52264.66;5006703;28;19925;-69
2023/06/08 03:53:46;;;;;;;;;;;;;;;-144.99;100.00;52232.03;5006664;28;19925;-69
2023/06/08 03:56:12;;;;;;;;;;;;;;;-144.99;100.00;52252.44;5006451;28;19935;-68
2023/06/08 03:58:41;;;;;;;;;;;;;;;-144.99;100.00;52268.72;5005040;28;19932;-69
2023/06/08 04:01:10;;;;;;;;;;;;;;;-144.99;100.00;52276.88;5009305;28;19925;-68
2023/06/08 04:03:37;;;;;;;;;;;;;;;-144.99;100.00;52232.03;5006830;28;19929;-69
2023/06/08 04:06:04;;;;;;;;;;;;;;;-144.99;100.00;52230.00;5006511;28;19926;-69
2023/06/08 04:08:31;;;;;;;;;;;;;;;-144.99;100.00;52248.34;5005378;28;20029;-70
2023/06/08 04:10:58;;;;;;;;;;;;;;;-144.99;100.00;52252.44;5006315;28;20422;-73
2023/06/08 04:13:25;;;;;;;;;;;;;;;-144.99;100.00;52219.81;5007124;28;19930;-76
2023/06/08 04:15:51;;;;;;;;;;;;;;;-144.99;100.00;52234.09;5009551;28;19937;-77
2023/06/08 04:18:21;;;;;;;;;;;;;;;-144.99;100.00;52238.16;5011922;28;19925;-78
2023/06/08 04:20:47;;;;;;;;;;;;;;;-144.99;100.00;52191.28;5011964;28;20024;-77
2023/06/08 04:23:15;;;;;;;;;;;;;;;-144.99;100.00;52232.03;5013303;28;19933;-77
2023/06/08 04:25:42;;;;;;;;;;;;;;;-144.99;99.74;52256.50;5010866;28;19929;-70
2023/06/08 04:28:08;;;;;;;;;;;;;;;-144.99;99.66;52264.66;5009898;28;19929;-66
2023/06/08 04:30:35;;;;;;;;;;;;;;;-144.99;99.56;52195.34;5009954;28;19925;-68
2023/06/08 04:33:02;;;;;;;;;;;;;;;-144.99;99.95;52248.34;5009799;28;19926;-67
2023/06/08 04:35:31;;;;;;;;;;;;;;;-144.99;99.81;52295.22;5009635;28;20113;-68
2023/06/08 04:37:57;;;;;;;;;;;;;;;-144.99;99.46;52244.28;5009491;28;19926;-67
2023/06/08 04:40:25;;;;;;;;;;;;;;;-144.99;96.22;52211.66;5009097;28;19930;-67
2023/06/08 04:42:51;;;;;;;;;;;;;;;-144.99;98.68;52240.19;5010271;28;20398;-67
2023/06/08 04:45:18;;;;;;;;;;;;;;;-144.99;99.04;52211.66;5007818;28;19929;-66
2023/06/08 04:47:45;;;;;;;;;;;;;;;-144.99;98.68;52264.66;5009441;28;19930;-65
2023/06/08 04:50:12;;;;;;;;;;;;;;;-144.99;98.83;52254.47;5010009;28;19929;-65
2023/06/08 04:52:41;;;;;;;;;;;;;;;-144.99;98.48;52240.19;5010214;28;19997;-65
2023/06/08 04:55:09;;;;;;;;;;;;;;;-144.99;98.70;52240.19;5009305;28;20348;-64
2023/06/08 04:57:35;;;;;;;;;;;;;;;-144.99;98.34;52215.75;5005124;28;19925;-64
2023/06/08 05:00:04;;;;;;;;;;;;;;;-144.99;98.07;52195.34;5008419;28;19925;-64
2023/06/08 05:02:31;;;;;;;;;;;;;;;-144.99;98.07;52236.13;5012308;28;20307;-65
2023/06/08 05:04:58;;;;;;;;;;;;;;;-144.99;97.33;52234.09;5041468;28;19933;-64
2023/06/08 05:07:25;;;;;;;;;;;;;;;-144.99;97.13;52252.44;5009755;28;20048;-65
2023/06/08 05:09:53;;;;;;;;;;;;;;;-144.99;95.28;52227.97;5007104;28;19940;-61
2023/06/08 05:12:19;;;;;;;;;;;;;;;-144.99;95.49;52227.97;5008517;28;19940;-62
2023/06/08 05:14:46;;;;;;;;;;;;;;;-144.99;92.89;52230.00;5009211;28;19941;-61
2023/06/08 05:17:13;;;;;;;;;;;;;;;-144.99;91.30;52174.97;5007920;28;20345;-61
2023/06/08 05:19:40;;;;;;;;;;;;;;;-144.99;91.54;52211.66;5007755;28;20458;-62
2023/06/08 05:22:06;;;;;;;;;;;;;;;-144.99;93.83;52219.81;5008046;28;19968;-62
2023/06/08 05:24:33;;;;;;;;;;;;;;;-144.99;92.39;52230.00;4660706;28;10000576;-62
2023/06/08 05:27:01;;;;;;;;;;;;;;;-144.99;90.63;52207.59;5004009;28;20024;-61
2023/06/08 05:29:28;;;;;;;;;;;;;;;-144.99;89.62;52181.09;5004328;28;19929;-62
2023/06/08 05:31:54;;;;;;;;;;;;;;;-144.99;89.28;52215.75;5005152;28;20011;-62
2023/06/08 05:34:21;;;;;;;;;;;;;;;-144.99;90.84;52207.59;5004489;28;19929;-62
2023/06/08 05:36:48;;;;;;;;;;;;;;;-144.99;91.95;52191.28;5003986;28;19983;-62
2023/06/08 05:39:14;;;;;;;;;;;;;;;-144.99;91.26;52217.78;5001465;28;19934;-63
2023/06/08 05:41:41;;;;;;;;;;;;;;;-144.99;90.40;52225.94;5004218;28;19983;-61
2023/06/08 05:44:09;;;;;;;;;;;;;;;-144.99;89.95;52213.69;4998174;28;19929;-61
2023/06/08 05:46:35;;;;;;;;;;;;;;;-144.99;90.62;52199.44;4997667;28;19940;-62
2023/06/08 05:49:02;;;;;;;;;;;;;;;-144.99;89.69;52219.81;5003520;28;20462;-64
2023/06/08 05:51:29;;;;;;;;;;;;;;;-144.99;90.56;52179.06;5005190;28;20104;-64
2023/06/08 05:53:55;;;;;;;;;;;;;;;-144.99;89.90;52254.47;5008056;28;19925;-63
2023/06/08 05:56:22;;;;;;;;;;;;;;;-144.99;89.86;52211.66;5011659;28;19929;-64
2023/06/08 05:58:49;;;;;;;;;;;;;;;-144.99;88.42;52211.66;5002584;28;19964;-64
2023/06/08 06:01:19;;;;;;;;;;;;;;;-144.99;87.01;52195.34;5003232;28;19933;-65
2023/06/08 06:03:45;;;;;;;;;;;;;;;-144.99;86.94;52191.28;5003882;28;19999;-64
2023/06/08 06:06:12;;;;;;;;;;;;;;;-144.99;86.81;52215.75;5002654;28;20023;-65
2023/06/08 06:08:39;;;;;;;;;;;;;;;-144.99;87.60;52215.75;5003553;28;20280;-65
2023/06/08 06:11:05;;;;;;;;;;;;;;;-144.99;87.59;52187.19;5000693;28;19929;-65
2023/06/08 06:13:32;;;;;;;;;;;;;;;-144.99;88.05;52191.28;5005123;28;19991;-65
2023/06/08 06:15:59;;;;;;;;;;;;;;;-144.99;87.80;52227.97;5004234;28;20358;-64
2023/06/08 06:18:27;;;;;;;;;;;;;;;-144.99;87.52;52191.28;5003443;28;19933;-65
2023/06/08 06:20:54;;;;;;;;;;;;;;;-144.99;87.36;52230.00;5004165;28;19929;-65
2023/06/08 06:23:20;;;;;;;;;;;;;;;-144.99;87.04;52236.13;5004355;28;19933;-65
2023/06/08 06:25:47;;;;;;;;;;;;;;;-144.99;87.02;52195.34;5003679;28;19938;-64
2023/06/08 06:28:14;;;;;;;;;;;;;;;-144.99;86.90;52219.81;5002921;28;19930;-65
2023/06/08 06:30:40;;;;;;;;;;;;;;;-144.99;86.41;52223.88;4998952;28;20320;-64
2023/06/08 06:33:07;;;;;;;;;;;;;;;-144.99;85.80;52183.13;5000133;28;19938;-65
2023/06/08 06:35:35;;;;;;;;;;;;;;;-144.99;85.44;52203.50;5003585;28;19936;-64
2023/06/08 06:38:01;;;;;;;;;;;;;;;-144.99;84.82;52207.59;5000368;28;19940;-65
2023/06/08 06:40:28;;;;;;;;;;;;;;;-144.99;84.89;52183.13;5003514;28;19930;-64
2023/06/08 06:42:55;;;;;;;;;;;;;;;-144.99;83.48;52213.69;5004091;28;19929;-64
2023/06/08 06:45:22;;;;;;;;;;;;;;;-144.99;83.17;52166.81;5002689;28;20403;-64
2023/06/08 06:47:48;;;;;;;;;;;;;;;-144.99;82.79;52187.19;5003762;28;20047;-64
2023/06/08 06:50:15;;;;;;;;;;;;;;;-144.99;83.02;52179.06;5002706;28;19929;-64
2023/06/08 06:52:43;;;;;;;;;;;;;;;-144.99;82.58;52162.75;4656969;28;10000238;-65
2023/06/08 06:55:10;;;;;;;;;;;;;;;-144.99;81.50;52134.22;5002354;28;19948;-65
2023/06/08 06:57:37;;;;;;;;;;;;;;;-144.99;81.16;52158.66;5005489;28;19925;-64
2023/06/08 07:00:07;;;;;;;;;;;;;;;-144.99;80.79;52187.19;5001598;28;19952;-65
2023/06/08 07:02:37;;;;;;;;;;;;;;;-144.99;81.00;52174.97;5007759;28;19983;-65
2023/06/08 07:05:04;;;;;;;;;;;;;;;-144.99;81.68;52170.91;5002736;28;19935;-65
2023/06/08 07:07:31;;;;;;;;;;;;;;;-144.99;82.04;52211.66;5002971;28;19933;-64
2023/06/08 07:10:00;;;;;;;;;;;;;;;-144.99;81.92;52179.06;5002991;28;19940;-65
2023/06/08 07:12:26;;;;;;;;;;;;;;;-144.99;81.05;52162.75;5003022;28;19929;-65
2023/06/08 07:14:53;;;;;;;;;;;;;;;-144.99;81.39;52203.50;5003123;28;19930;-66
2023/06/08 07:17:19;;;;;;;;;;;;;;;-144.99;81.05;52203.50;5003244;28;20449;-65
2023/06/08 07:19:47;;;;;;;;;;;;;;;-144.99;80.59;52183.13;5002891;28;20032;-64
2023/06/08 07:22:14;;;;;;;;;;;;;;;-144.99;79.41;52211.66;5003004;28;19929;-65
2023/06/08 07:24:40;;;;;;;;;;;;;;;-144.99;79.67;52154.59;5002380;28;20253;-65
2023/06/08 07:27:08;;;;;;;;;;;;;;;-144.99;79.66;52166.81;5003009;28;19988;-66
2023/06/08 07:29:35;;;;;;;;;;;;;;;-144.99;79.79;52156.63;5001529;28;19929;-66
2023/06/08 07:32:02;;;;;;;;;;;;;;;-144.99;79.53;52136.25;5002845;28;19937;-67
2023/06/08 07:34:29;;;;;;;;;;;;;;;-144.99;79.23;52150.53;5003059;28;20258;-67
2023/06/08 07:36:55;;;;;;;;;;;;;;;-144.99;79.72;52179.06;5002548;28;20494;-66
2023/06/08 07:39:22;;;;;;;;;;;;;;;-144.99;79.67;52179.06;5001261;28;19930;-66
2023/06/08 07:41:49;;;;;;;;;;;;;;;-144.99;79.55;52158.66;5002393;28;20241;-67
2023/06/08 07:44:17;;;;;;;;;;;;;;;-144.99;79.44;52154.59;5000690;28;19933;-66
2023/06/08 07:46:43;;;;;;;;;;;;;;;-144.99;78.95;52142.38;5002876;28;19925;-66
2023/06/08 07:49:10;;;;;;;;;;;;;;;-144.99;78.68;52187.19;5002402;28;19984;-66
2023/06/08 07:51:37;;;;;;;;;;;;;;;-144.99;77.95;52136.25;5002557;28;19940;-67
2023/06/08 07:54:03;;;;;;;;;;;;;;;-144.99;77.50;52138.28;5001441;28;20173;-68
2023/06/08 07:56:30;;;;;;;;;;;;;;;-144.99;76.94;52187.19;5002606;28;19930;-66
2023/06/08 07:58:57;;;;;;;;;;;;;;;-144.99;76.33;52138.28;5000078;28;19933;-66
2023/06/08 08:01:25;;;;;;;;;;;;;;;-144.99;76.09;52158.66;5005547;28;19930;-66
2023/06/08 08:03:52;;;;;;;;;;;;;;;-144.99;75.83;52162.75;5002349;28;19936;-66
2023/06/08 08:06:19;;;;;;;;;;;;;;;-144.99;76.06;52105.69;5003901;28;20430;-66
2023/06/08 08:08:45;;;;;;;;;;;;;;;-144.99;75.14;52130.13;5001750;28;20468;-66
2023/06/08 08:11:12;;;;;;;;;;;;;;;-144.99;75.03;52105.69;5002722;28;19929;-66
2023/06/08 08:13:39;;;;;;;;;;;;;;;-144.99;74.15;52138.28;5002874;28;19968;-67
2023/06/08 08:16:06;;;;;;;;;;;;;;;-144.99;74.05;52142.38;5002563;28;20259;-67
2023/06/08 08:18:34;;;;;;;;;;;;;;;-144.99;73.40;52105.69;5001377;28;19940;-67
2023/06/08 08:21:00;;;;;;;;;;;;;;;-144.99;73.25;52121.97;5002478;28;19933;-67
2023/06/08 08:23:27;;;;;;;;;;;;;;;-144.99;72.81;52113.84;5001270;28;19925;-67
2023/06/08 08:25:54;;;;;;;;;;;;;;;-144.99;72.45;52109.75;5002522;28;20417;-67
2023/06/08 08:28:20;;;;;;;;;;;;;;;-144.99;72.45;52109.75;5000602;28;19930;-65
2023/06/08 08:30:47;;;;;;;;;;;;;;;-144.99;73.00;52121.97;5002145;28;19929;-65
2023/06/08 08:33:14;;;;;;;;;;;;;;;-144.99;72.84;52060.84;5001944;28;19929;-66
2023/06/08 08:35:42;;;;;;;;;;;;;;;-144.99;72.76;52121.97;5001088;28;19949;-65
2023/06/08 08:38:08;;;;;;;;;;;;;;;-144.99;72.81;52105.69;5001251;28;19953;-66
2023/06/08 08:40:35;;;;;;;;;;;;;;;-144.99;72.71;52103.66;5001463;28;20020;-65
2023/06/08 08:43:06;;;;;;;;;;;;;;;-144.99;71.54;52089.38;5003846;28;19933;-65
2023/06/08 08:45:34;;;;;;;;;;;;;;;-144.99;70.55;52077.16;5003727;28;19933;-67
2023/06/08 08:48:01;;;;;;;;;;;;;;;-144.99;70.62;52079.19;5002430;28;19936;-66
2023/06/08 08:50:29;;;;;;;;;;;;;;;-144.99;70.27;52060.84;5002755;28;20112;-67
2023/06/08 08:52:59;;;;;;;;;;;;;;;-144.99;70.16;52121.97;5005048;28;20152;-67
2023/06/08 08:55:28;;;;;;;;;;;;;;;-144.99;70.26;52097.53;5002989;28;19929;-67
2023/06/08 08:57:57;;;;;;;;;;;;;;;-144.99;70.28;52095.50;5002315;28;20275;-67
2023/06/08 09:00:23;;;;;;;;;;;;;;;-144.99;70.00;52066.97;5001323;28;20686;-66
2023/06/08 09:02:51;;;;;;;;;;;;;;;-144.99;69.32;52085.31;5005818;28;20024;-66
2023/06/08 09:05:18;;;;;;;;;;;;;;;-144.99;68.74;52085.31;5005589;28;19929;-66
2023/06/08 09:07:44;;;;;;;;;;;;;;;-144.99;67.45;52069.00;5004962;28;19929;-67
2023/06/08 09:10:17;;;;;;;;;;;;;;;-144.99;67.96;52101.59;5029053;22;19941;-79
2023/06/08 09:12:45;;;;;;;;;;;;;;;-144.99;67.29;52064.91;5061264;28;19924;-77
2023/06/08 09:15:12;;;;;;;;;;;;;;;-144.99;67.84;52105.69;5066489;28;19924;-81
2023/06/08 09:17:40;;;;;;;;;;;;;;;-144.99;68.35;52081.22;5067022;28;20027;-76
2023/06/08 09:20:08;;;;;;;;;;;;;;;-144.99;68.36;52091.41;5069114;28;20558;-80
2023/06/08 09:22:35;;;;;;;;;;;;;;;-144.99;68.57;52054.72;5061449;28;19928;-77
2023/06/08 09:25:02;;;;;;;;;;;;;;;-144.99;67.79;52071.03;5061142;28;19958;-80
2023/06/08 09:27:31;;;;;;;;;;;;;;;-144.99;67.27;52064.91;5078746;28;19993;-77
2023/06/08 09:29:59;;;;;;;;;;;;;;;-144.99;66.90;52060.84;5073405;28;20027;-80
2023/06/08 09:32:37;;;;;;;;;;;;;;;-144.99;66.88;52060.84;5080822;28;19929;-79
2023/06/08 09:35:03;;;;;;;;;;;;;;;-144.99;65.94;52073.06;5084380;28;19986;-76
2023/06/08 09:37:31;;;;;;;;;;;;;;;-144.99;66.00;52060.84;5073809;28;20374;-78
2023/06/08 09:39:58;;;;;;;;;;;;;;;-144.99;66.34;52069.00;5068042;28;19932;-78
2023/06/08 09:42:40;;;;;;;;;;;;;;;-144.99;65.48;52028.22;5066170;28;19928;-78
2023/06/08 09:45:10;;;;;;;;;;;;;;;-144.99;64.93;52044.53;5087493;28;19968;-80
2023/06/08 09:47:37;;;;;;;;;;;;;;;-144.99;65.34;52060.84;5059638;28;20169;-79
2023/06/08 09:50:06;;;;;;;;;;;;;;;-144.99;65.71;52077.16;5060600;28;19928;-79
2023/06/08 09:52:34;;;;;;;;;;;;;;;-144.99;66.30;52077.16;5070925;28;20180;-78
2023/06/08 09:55:01;;;;;;;;;;;;;;;-144.99;65.69;52040.47;5053619;28;19936;-79
2023/06/08 09:57:28;;;;;;;;;;;;;;;-144.99;65.28;52085.31;5078448;28;19958;-78
2023/06/08 10:00:13;;;;;;;;;;;;;;;-144.99;64.08;52064.91;5055420;28;20419;-78
2023/06/08 10:02:42;;;;;;;;;;;;;;;-144.99;64.51;52058.81;5073643;28;19929;-79
2023/06/08 10:05:10;;;;;;;;;;;;;;;-144.99;64.68;52073.06;5073709;28;20278;-78
2023/06/08 10:07:37;;;;;;;;;;;;;;;-144.99;64.68;52034.34;5069464;28;20490;-79
2023/06/08 10:10:06;;;;;;;;;;;;;;;-144.99;65.32;52060.84;5067583;28;20024;-78
2023/06/08 10:12:33;;;;;;;;;;;;;;;-144.99;65.09;52044.53;5068739;28;19931;-80
2023/06/08 10:15:00;;;;;;;;;;;;;;;-144.99;64.96;52024.16;5074003;28;19928;-79
2023/06/08 10:17:27;;;;;;;;;;;;;;;-144.99;64.63;52060.84;5068611;28;20027;-80
2023/06/08 10:19:58;;;;;;;;;;;;;;;-144.99;64.30;52036.38;5074765;28;19924;-75
2023/06/08 10:22:26;;;;;;;;;;;;;;;-144.99;63.79;52036.38;5075756;28;20020;-80
2023/06/08 10:24:52;;;;;;;;;;;;;;;-144.99;62.47;51997.66;5065905;28;20018;-79
2023/06/08 10:27:28;;;;;;;;;;;;;;;-144.99;61.71;51993.59;5077546;28;19936;-77
2023/06/08 10:29:55;;;;;;;;;;;;;;;-144.99;61.75;52024.16;5063176;28;19986;-78
2023/06/08 10:32:29;;;;;;;;;;;;;;;-144.99;62.22;51979.31;5072378;28;20452;-77
2023/06/08 10:34:58;;;;;;;;;;;;;;;-144.99;62.35;51967.09;5065485;28;19928;-78
2023/06/08 10:37:28;;;;;;;;;;;;;;;-144.99;62.35;51979.31;5062501;28;19925;-77
2023/06/08 10:39:55;;;;;;;;;;;;;;;-144.99;61.60;52003.78;5077599;28;19989;-77
2023/06/08 10:42:22;;;;;;;;;;;;;;;-144.99;61.09;52028.22;5063817;28;20371;-78
2023/06/08 10:44:53;;;;;;;;;;;;;;;-144.99;60.46;51983.41;5063312;28;19932;-76
2023/06/08 10:47:20;;;;;;;;;;;;;;;-144.99;60.46;51958.94;5065146;28;20088;-76
2023/06/08 10:49:47;;;;;;;;;;;;;;;-144.99;60.78;51995.63;5064492;28;19951;-75
2023/06/08 10:52:19;;;;;;;;;;;;;;;-144.99;60.48;51950.78;5074717;28;20427;-79
2023/06/08 10:54:52;;;;;;;;;;;;;;;-144.99;59.82;51991.56;5065247;28;19925;-78
2023/06/08 10:57:42;;;;;;;;;;;;;;;-144.99;59.19;51971.16;5075001;28;20034;-77
2023/06/08 11:00:29;;;;;;;;;;;;;;;-144.99;57.79;51954.88;5039562;28;19948;-76
2023/06/08 11:02:56;;;;;;;;;;;;;;;-144.99;57.74;51958.94;5069546;28;19930;-78
2023/06/08 11:05:23;;;;;;;;;;;;;;;-144.99;58.49;51973.22;5077877;28;19928;-78
2023/06/08 11:07:53;;;;;;;;;;;;;;;-144.99;59.15;51967.09;5069400;28;19928;-78
2023/06/08 11:10:22;;;;;;;;;;;;;;;-144.99;58.24;51963.03;5062786;28;21454;-77
2023/06/08 11:12:49;;;;;;;;;;;;;;;-144.99;58.34;51954.88;5065441;28;19954;-80
2023/06/08 11:15:15;;;;;;;;;;;;;;;-144.99;58.09;51975.25;5082113;28;20276;-78
2023/06/08 11:17:44;;;;;;;;;;;;;;;-144.99;57.56;51987.47;5065897;28;19943;-78
2023/06/08 11:20:13;;;;;;;;;;;;;;;-144.99;57.53;51942.63;5066060;28;19932;-78
2023/06/08 11:22:40;;;;;;;;;;;;;;;-144.99;56.16;51916.16;5065288;28;20478;-79
2023/06/08 11:25:08;;;;;;;;;;;;;;;-144.99;56.05;51983.41;5064441;28;19967;-77
2023/06/08 11:27:42;;;;;;;;;;;;;;;-144.99;55.98;51969.13;5055739;28;19928;-78
2023/06/08 11:30:09;;;;;;;;;;;;;;;-144.99;56.11;51938.56;5054086;28;19928;-76
2023/06/08 11:32:38;;;;;;;;;;;;;;;-144.99;56.03;51934.50;5057580;28;19929;-79
2023/06/08 11:35:05;;;;;;;;;;;;;;;-144.99;55.86;51950.78;5048208;28;19954;-78
2023/06/08 11:37:33;;;;;;;;;;;;;;;-144.99;56.04;51946.72;5055020;28;19928;-79
2023/06/08 11:40:00;;;;;;;;;;;;;;;-144.99;55.10;51934.50;5058797;28;20371;-78
2023/06/08 11:42:27;;;;;;;;;;;;;;;-144.99;55.51;51905.97;5075032;28;19932;-78
2023/06/08 11:44:57;;;;;;;;;;;;;;;-144.99;55.29;51905.97;5061095;28;19947;-80
2023/06/08 11:47:25;;;;;;;;;;;;;;;-144.99;55.78;51934.50;5064362;28;20449;-82
2023/06/08 11:49:52;;;;;;;;;;;;;;;-144.99;55.50;51938.56;5064853;28;19931;-80
2023/06/08 11:52:19;;;;;;;;;;;;;;;-144.99;55.70;51918.19;5069174;28;19924;-79
2023/06/08 11:54:45;;;;;;;;;;;;;;;-144.99;55.08;51938.56;5064093;28;19932;-80
2023/06/08 11:57:12;;;;;;;;;;;;;;;-144.99;53.96;51920.22;5064941;28;20125;-78
2023/06/08 11:59:41;;;;;;;;;;;;;;;-144.99;54.31;51934.50;5064879;28;20117;-76
2023/06/08 12:02:09;;;;;;;;;;;;;;;-144.99;55.22;51946.72;5058986;28;19929;-77
2023/06/08 12:04:36;;;;;;;;;;;;;;;-144.99;55.44;51930.41;5053888;28;19935;-78
2023/06/08 12:07:10;;;;;;;;;;;;;;;-144.99;54.62;51926.34;5066923;28;19940;-78
2023/06/08 12:09:37;;;;;;;;;;;;;;;-144.99;54.02;51905.97;5065505;28;19964;-76
2023/06/08 12:12:08;;;;;;;;;;;;;;;-144.99;53.51;51922.25;5073347;28;19925;-79
2023/06/08 12:14:35;;;;;;;;;;;;;;;-144.99;53.52;51901.88;5054514;28;19928;-81
2023/06/08 12:17:05;;;;;;;;;;;;;;;-144.99;53.66;51873.34;5061518;28;20467;-77
2023/06/08 12:19:32;;;;;;;;;;;;;;;-144.99;53.33;51877.44;5063374;28;20227;-80
2023/06/08 12:21:59;;;;;;;;;;;;;;;-144.99;53.45;51903.91;5067132;28;20427;-79
2023/06/08 12:24:25;;;;;;;;;;;;;;;-144.99;53.34;51905.97;5060637;28;19955;-79
2023/06/08 12:26:52;;;;;;;;;;;;;;;-144.99;53.48;51877.44;5076993;28;19924;-78
2023/06/08 12:29:19;;;;;;;;;;;;;;;-144.99;53.46;51901.88;5063007;28;19932;-78